createdAt,value
2023-03-27T00:04:59.576Z,97388.00
2023-03-27T00:10:04.732Z,97382.47
2023-03-27T00:15:17.472Z,97380.25
2023-03-27T00:20:25.247Z,97397.06
2023-03-27T00:25:32.291Z,97396.66
2023-03-27T00:30:43.442Z,97400.06
2023-03-27T00:35:50.050Z,97400.34
2023-03-27T00:40:56.332Z,97418.41
2023-03-27T00:46:08.236Z,97430.03
2023-03-27T00:51:13.830Z,97430.66
2023-03-27T00:56:20.220Z,97436.41
2023-03-27T01:01:31.004Z,97452.59
2023-03-27T01:06:36.404Z,97458.66
2023-03-27T01:11:53.886Z,97462.38
2023-03-27T01:17:17.587Z,97479.97
2023-03-27T01:22:44.863Z,97480.84
2023-03-27T01:28:24.918Z,97496.28
2023-03-27T01:33:58.980Z,97515.69
2023-03-27T01:39:24.531Z,97523.22
2023-03-27T01:44:45.168Z,97533.34
2023-03-27T01:49:55.108Z,97543.03
2023-03-27T01:55:09.976Z,97552.81
2023-03-27T02:00:22.200Z,97566.91
2023-03-27T02:05:33.365Z,97575.09
2023-03-27T02:10:48.271Z,97599.03
2023-03-27T02:15:55.058Z,97605.25
2023-03-27T02:21:02.705Z,97616.78
2023-03-27T02:26:14.941Z,97624.66
2023-03-27T02:31:36.624Z,97634.00
2023-03-27T02:36:53.580Z,97646.59
2023-03-27T02:42:06.945Z,97661.31
2023-03-27T02:47:20.887Z,97685.53
2023-03-27T02:52:33.925Z,97688.44
2023-03-27T02:57:52.299Z,97715.88
2023-03-27T03:03:21.924Z,97714.47
2023-03-27T03:08:39.012Z,97729.84
2023-03-27T03:13:51.222Z,97750.34
2023-03-27T03:18:56.779Z,97757.41
2023-03-27T03:24:02.132Z,97775.91
2023-03-27T03:29:12.832Z,97773.88
2023-03-27T03:34:22.757Z,97803.75
2023-03-27T03:39:28.400Z,97796.66
2023-03-27T03:44:37.458Z,97819.41
2023-03-27T03:49:56.458Z,97840.34
2023-03-27T03:55:06.431Z,97853.59
2023-03-27T04:00:18.287Z,97863.03
2023-03-27T04:05:32.568Z,97877.63
2023-03-27T04:10:44.463Z,97877.59
2023-03-27T04:16:14.926Z,97892.22
2023-03-27T04:21:26.997Z,97898.44
2023-03-27T04:26:33.441Z,97911.69
2023-03-27T04:31:53.795Z,97918.66
2023-03-27T04:37:23.246Z,97920.72
2023-03-27T04:42:44.222Z,97929.06
2023-03-27T04:47:53.173Z,97946.03
2023-03-27T04:53:02.222Z,97950.19
2023-03-27T04:58:15.750Z,97970.16
2023-03-27T05:03:26.264Z,97974.00
2023-03-27T05:08:46.918Z,97986.41
2023-03-27T05:14:06.453Z,97990.19
2023-03-27T05:19:17.106Z,97993.69
2023-03-27T05:24:29.569Z,98012.03
2023-03-27T05:29:46.653Z,98030.41
2023-03-27T05:34:57.704Z,98039.94
2023-03-27T05:40:04.350Z,98039.41
2023-03-27T05:45:14.030Z,98039.72
2023-03-27T05:50:34.580Z,98047.22
2023-03-27T05:55:46.608Z,98053.06
2023-03-27T06:00:52.154Z,98068.44
2023-03-27T06:06:02.785Z,98085.53
2023-03-27T06:11:21.073Z,98097.63
2023-03-27T06:16:33.564Z,98102.66
2023-03-27T06:22:15.949Z,98111.59
2023-03-27T06:27:26.536Z,98124.22
2023-03-27T06:32:33.264Z,98128.75
2023-03-27T06:37:46.136Z,98138.44
2023-03-27T06:42:53.682Z,98148.88
2023-03-27T06:48:25.477Z,98160.69
2023-03-27T06:53:38.256Z,98167.47
2023-03-27T06:58:49.281Z,98164.31
2023-03-27T07:03:54.831Z,98179.41
2023-03-27T07:09:30.393Z,98192.66
2023-03-27T07:14:42.840Z,98194.81
2023-03-27T07:19:49.496Z,98203.88
2023-03-27T07:24:59.603Z,98220.19
2023-03-27T07:30:15.165Z,98224.44
2023-03-27T07:35:24.417Z,98234.66
2023-03-27T07:40:51.843Z,98236.81
2023-03-27T07:46:24.458Z,98251.16
2023-03-27T07:51:31.322Z,98249.94
2023-03-27T07:56:44.217Z,98251.66
2023-03-27T08:02:15.143Z,98263.34
2023-03-27T08:07:22.901Z,98273.38
2023-03-27T08:12:30.902Z,98277.34
2023-03-27T08:17:39.984Z,98294.03
2023-03-27T08:22:46.608Z,98290.16
2023-03-27T08:28:12.855Z,98302.94
2023-03-27T08:33:20.682Z,98303.66
2023-03-27T08:38:28.761Z,98301.41
2023-03-27T08:43:53.564Z,98300.84
2023-03-27T08:49:02.143Z,98316.44
2023-03-27T08:54:12.918Z,98317.25
2023-03-27T08:59:23.807Z,98305.00
2023-03-27T09:04:44.747Z,98322.53
2023-03-27T09:10:00.134Z,98326.22
2023-03-27T09:15:16.515Z,98319.94
2023-03-27T09:20:37.842Z,98319.22
2023-03-27T09:25:48.279Z,98331.84
2023-03-27T09:31:29.331Z,98343.59
2023-03-27T09:36:39.885Z,98343.13
2023-03-27T09:41:51.984Z,98343.91
2023-03-27T09:47:05.596Z,98342.75
2023-03-27T09:52:32.879Z,98353.31
2023-03-27T09:57:51.841Z,98359.41
2023-03-27T10:03:13.574Z,98361.72
2023-03-27T10:08:43.112Z,98370.09
2023-03-27T10:13:56.459Z,98367.50
2023-03-27T10:19:07.296Z,98371.91
2023-03-27T10:24:29.199Z,98380.63
2023-03-27T10:29:54.473Z,98368.91
2023-03-27T10:35:03.459Z,98385.78
2023-03-27T10:40:43.114Z,98402.84
2023-03-27T10:45:59.050Z,98399.75
2023-03-27T10:51:28.418Z,98396.94
2023-03-27T10:56:55.649Z,98416.91
2023-03-27T11:02:13.615Z,98419.28
2023-03-27T11:07:35.545Z,98418.78
2023-03-27T11:12:45.768Z,98407.50
2023-03-27T11:17:56.918Z,98423.09
2023-03-27T11:23:17.780Z,98429.41
2023-03-27T11:28:54.200Z,98430.53
2023-03-27T11:34:08.833Z,98442.28
2023-03-27T11:39:30.344Z,98456.84
2023-03-27T11:44:39.694Z,98464.72
2023-03-27T11:50:11.116Z,98467.50
2023-03-27T11:55:31.302Z,98471.59
2023-03-27T12:00:47.654Z,98463.09
2023-03-27T12:06:07.731Z,98476.38
2023-03-27T12:11:20.628Z,98476.31
2023-03-27T12:16:49.706Z,98469.50
2023-03-27T12:22:23.864Z,98470.28
2023-03-27T12:27:54.587Z,98468.59
2023-03-27T12:33:38.282Z,98458.50
2023-03-27T12:38:46.080Z,98451.31
2023-03-27T12:43:59.618Z,98459.91
2023-03-27T12:49:47.612Z,98458.69
2023-03-27T12:55:35.110Z,98468.59
2023-03-27T13:00:45.045Z,98471.91
2023-03-27T13:06:05.092Z,98476.72
2023-03-27T13:11:27.292Z,98475.63
2023-03-27T13:16:51.809Z,98489.19
2023-03-27T13:22:15.728Z,98490.09
2023-03-27T13:27:46.580Z,98482.25
2023-03-27T13:33:15.650Z,98483.91
2023-03-27T13:39:02.763Z,98489.63
2023-03-27T13:44:17.945Z,98513.41
2023-03-27T13:49:46.096Z,98488.69
2023-03-27T13:55:20.992Z,98500.09
2023-03-27T14:01:17.397Z,98500.03
2023-03-27T14:07:00.747Z,98501.75
2023-03-27T14:12:22.201Z,98505.16
2023-03-27T14:18:29.188Z,98536.97
2023-03-27T14:23:52.375Z,98543.41
2023-03-27T14:29:23.279Z,98542.03
2023-03-27T14:34:51.089Z,98567.13
2023-03-27T14:40:24.071Z,98595.63
2023-03-27T14:45:37.264Z,98603.84
2023-03-27T14:50:46.534Z,98590.13
2023-03-27T14:55:54.404Z,98594.94
2023-03-27T15:01:35.529Z,98597.38
2023-03-27T15:06:41.936Z,98591.75
2023-03-27T15:11:52.678Z,98587.75
2023-03-27T15:17:10.189Z,98608.13
2023-03-27T15:22:23.790Z,98598.84
2023-03-27T15:27:32.722Z,98612.63
2023-03-27T15:32:51.114Z,98613.44
2023-03-27T15:37:57.429Z,98604.50
2023-03-27T15:43:22.218Z,98618.50
2023-03-27T15:48:35.531Z,98616.75
2023-03-27T15:53:42.639Z,98617.13
2023-03-27T15:58:50.939Z,98611.59
2023-03-27T16:04:04.990Z,98628.94
2023-03-27T16:09:25.446Z,98633.97
2023-03-27T16:14:34.773Z,98645.22
2023-03-27T16:19:56.151Z,98635.50
2023-03-27T16:25:02.770Z,98661.34
2023-03-27T16:30:25.769Z,98671.09
2023-03-27T16:35:36.630Z,98667.41
2023-03-27T16:40:47.087Z,98675.28
2023-03-27T16:45:52.571Z,98689.03
2023-03-27T16:51:00.339Z,98695.91
2023-03-27T16:56:05.523Z,98696.69
2023-03-27T17:01:11.401Z,98705.34
2023-03-27T17:06:19.941Z,98712.72
2023-03-27T17:11:26.066Z,98723.19
2023-03-27T17:16:32.338Z,98728.22
2023-03-27T17:21:40.102Z,98726.06
2023-03-27T17:26:45.232Z,98779.19
2023-03-27T17:31:52.981Z,98793.13
2023-03-27T17:37:01.817Z,98805.25
2023-03-27T17:42:07.177Z,98810.28
2023-03-27T17:47:15.172Z,98807.78
2023-03-27T17:52:23.714Z,98801.25
2023-03-27T17:57:28.900Z,98822.63
2023-03-27T18:02:34.123Z,98826.28
2023-03-27T18:07:45.021Z,98795.41
2023-03-27T18:12:50.773Z,98803.63
2023-03-27T18:17:55.950Z,98804.78
2023-03-27T18:23:06.116Z,98806.31
2023-03-27T18:28:13.123Z,98815.31
2023-03-27T18:33:18.659Z,98833.50
2023-03-27T18:38:27.573Z,98831.44
2023-03-27T18:43:37.815Z,98845.84
2023-03-27T18:48:43.174Z,98865.50
2023-03-27T18:53:53.271Z,98861.47
2023-03-27T18:58:58.580Z,98852.88
2023-03-27T19:04:08.037Z,98855.03
2023-03-27T19:09:17.881Z,98865.03
2023-03-27T19:14:25.698Z,98858.69
2023-03-27T19:19:49.714Z,98858.22
2023-03-27T19:25:24.575Z,98866.75
2023-03-27T19:30:32.858Z,98861.22
2023-03-27T19:35:39.621Z,98866.53
2023-03-27T19:40:48.238Z,98865.47
2023-03-27T19:46:14.352Z,98866.81
2023-03-27T19:51:23.638Z,98874.66
2023-03-27T19:56:35.297Z,98866.38
2023-03-27T20:01:40.647Z,98861.66
2023-03-27T20:06:48.896Z,98859.66
2023-03-27T20:11:57.880Z,98860.66
2023-03-27T20:17:09.945Z,98848.19
2023-03-27T20:22:23.504Z,98856.56
2023-03-27T20:27:31.405Z,98861.41
2023-03-27T20:32:36.616Z,98861.66
2023-03-27T20:37:43.715Z,98862.91
2023-03-27T20:43:03.438Z,98863.03
2023-03-27T20:48:12.455Z,98862.19
2023-03-27T20:53:26.430Z,98855.94
2023-03-27T20:58:37.889Z,98869.25
2023-03-27T21:03:46.603Z,98864.19
2023-03-27T21:08:53.202Z,98855.38
2023-03-27T21:14:01.019Z,98858.47
2023-03-27T21:19:06.268Z,98848.69
2023-03-27T21:24:14.514Z,98854.06
2023-03-27T21:29:22.292Z,98848.34
2023-03-27T21:34:28.220Z,98856.41
2023-03-27T21:39:33.244Z,98848.19
2023-03-27T21:44:42.306Z,98843.03
2023-03-27T21:49:47.418Z,98846.19
2023-03-27T21:55:02.435Z,98846.72
2023-03-27T22:00:14.592Z,98838.59
2023-03-27T22:05:22.901Z,98836.91
2023-03-27T22:10:28.224Z,98844.56
2023-03-27T22:15:36.508Z,98839.78
2023-03-27T22:20:42.215Z,98831.44
2023-03-27T22:25:54.606Z,98838.41
2023-03-27T22:31:03.449Z,98835.53
2023-03-27T22:36:11.884Z,98835.41
2023-03-27T22:41:17.448Z,98841.22
2023-03-27T22:46:26.841Z,98848.28
2023-03-27T22:51:33.584Z,98849.53
2023-03-27T22:56:38.607Z,98850.34
2023-03-27T23:01:46.601Z,98844.38
2023-03-27T23:06:51.667Z,98857.31
2023-03-27T23:11:56.999Z,98859.88
2023-03-27T23:17:05.114Z,98869.25
2023-03-27T23:22:12.547Z,98870.38
2023-03-27T23:27:17.499Z,98862.94
2023-03-27T23:32:25.147Z,98867.97
2023-03-27T23:37:30.510Z,98862.22
2023-03-27T23:42:35.604Z,98861.59
2023-03-27T23:47:43.290Z,98856.44
2023-03-27T23:52:48.370Z,98854.34
2023-03-27T23:57:53.342Z,98846.63
